sensor_id;sensor_type;location;lat;lon;timestamp;temperature;humidity
8402;DHT22;4238;48.404;9.498;2023-02-28T00:01:34;-3.20;66.60
8402;DHT22;4238;48.404;9.498;2023-02-28T00:04:01;-3.20;66.10
8402;DHT22;4238;48.404;9.498;2023-02-28T00:06:28;-3.20;67.30
8402;DHT22;4238;48.404;9.498;2023-02-28T00:08:55;-3.20;70.00
8402;DHT22;4238;48.404;9.498;2023-02-28T00:11:22;-3.20;57.30
8402;DHT22;4238;48.404;9.498;2023-02-28T00:13:49;-3.20;52.80
8402;DHT22;4238;48.404;9.498;2023-02-28T00:16:19;-3.20;56.80
8402;DHT22;4238;48.404;9.498;2023-02-28T00:18:46;-3.30;60.40
8402;DHT22;4238;48.404;9.498;2023-02-28T00:21:14;-3.20;62.50
8402;DHT22;4238;48.404;9.498;2023-02-28T00:23:41;-3.20;62.50
8402;DHT22;4238;48.404;9.498;2023-02-28T00:26:08;-3.20;57.00
8402;DHT22;4238;48.404;9.498;2023-02-28T00:28:35;-3.30;59.70
8402;DHT22;4238;48.404;9.498;2023-02-28T00:31:02;-3.30;60.90
8402;DHT22;4238;48.404;9.498;2023-02-28T00:33:30;-3.30;63.40
8402;DHT22;4238;48.404;9.498;2023-02-28T00:36:05;-3.30;65.90
8402;DHT22;4238;48.404;9.498;2023-02-28T00:38:33;-3.20;62.40
8402;DHT22;4238;48.404;9.498;2023-02-28T00:41:00;-3.20;57.30
8402;DHT22;4238;48.404;9.498;2023-02-28T00:43:30;-3.20;51.50
8402;DHT22;4238;48.404;9.498;2023-02-28T00:45:57;-3.20;57.10
8402;DHT22;4238;48.404;9.498;2023-02-28T00:48:24;-3.20;50.90
8402;DHT22;4238;48.404;9.498;2023-02-28T00:50:53;-3.30;47.90
8402;DHT22;4238;48.404;9.498;2023-02-28T00:53:21;-3.20;50.80
8402;DHT22;4238;48.404;9.498;2023-02-28T00:55:49;-3.20;57.30
8402;DHT22;4238;48.404;9.498;2023-02-28T00:58:16;-3.20;50.50
8402;DHT22;4238;48.404;9.498;2023-02-28T01:00:42;-3.20;48.70
8402;DHT22;4238;48.404;9.498;2023-02-28T01:03:14;-3.20;47.70
8402;DHT22;4238;48.404;9.498;2023-02-28T01:05:41;-3.30;48.20
8402;DHT22;4238;48.404;9.498;2023-02-28T01:08:10;-3.40;51.60
8402;DHT22;4238;48.404;9.498;2023-02-28T01:10:36;-3.30;54.10
8402;DHT22;4238;48.404;9.498;2023-02-28T01:13:04;-3.30;51.10
8402;DHT22;4238;48.404;9.498;2023-02-28T01:15:30;-3.30;47.70
8402;DHT22;4238;48.404;9.498;2023-02-28T01:17:58;-3.40;48.20
8402;DHT22;4238;48.404;9.498;2023-02-28T01:20:25;-3.40;53.70
8402;DHT22;4238;48.404;9.498;2023-02-28T01:22:52;-3.40;48.80
8402;DHT22;4238;48.404;9.498;2023-02-28T01:25:20;-3.30;45.50
8402;DHT22;4238;48.404;9.498;2023-02-28T01:27:47;-3.30;44.20
8402;DHT22;4238;48.404;9.498;2023-02-28T01:30:14;-3.30;32.90
8402;DHT22;4238;48.404;9.498;2023-02-28T01:32:41;-3.30;40.70
8402;DHT22;4238;48.404;9.498;2023-02-28T01:35:08;-3.30;40.70
8402;DHT22;4238;48.404;9.498;2023-02-28T01:37:35;-3.40;45.40
8402;DHT22;4238;48.404;9.498;2023-02-28T01:40:03;-3.30;36.40
8402;DHT22;4238;48.404;9.498;2023-02-28T01:42:31;-3.40;41.20
8402;DHT22;4238;48.404;9.498;2023-02-28T01:45:07;-3.30;34.30
8402;DHT22;4238;48.404;9.498;2023-02-28T01:47:42;-3.30;28.20
8402;DHT22;4238;48.404;9.498;2023-02-28T01:50:13;-3.30;34.50
8402;DHT22;4238;48.404;9.498;2023-02-28T01:52:42;-3.40;35.20
8402;DHT22;4238;48.404;9.498;2023-02-28T01:55:10;-3.40;37.70
8402;DHT22;4238;48.404;9.498;2023-02-28T01:57:43;-3.50;43.70
8402;DHT22;4238;48.404;9.498;2023-02-28T02:00:15;-3.60;57.50
8402;DHT22;4238;48.404;9.498;2023-02-28T02:02:45;-3.40;53.50
8402;DHT22;4238;48.404;9.498;2023-02-28T02:05:17;-3.40;45.30
8402;DHT22;4238;48.404;9.498;2023-02-28T02:07:46;-3.40;48.60
8402;DHT22;4238;48.404;9.498;2023-02-28T02:10:16;-3.40;48.30
8402;DHT22;4238;48.404;9.498;2023-02-28T02:13:13;-3.40;52.70
8402;DHT22;4238;48.404;9.498;2023-02-28T02:15:43;-3.40;43.60
8402;DHT22;4238;48.404;9.498;2023-02-28T02:18:20;-3.40;43.90
8402;DHT22;4238;48.404;9.498;2023-02-28T02:21:18;-3.40;45.20
8402;DHT22;4238;48.404;9.498;2023-02-28T02:27:23;-3.40;43.10
8402;DHT22;4238;48.404;9.498;2023-02-28T02:30:07;-3.50;48.60
8402;DHT22;4238;48.404;9.498;2023-02-28T02:35:40;-3.40;39.00
8402;DHT22;4238;48.404;9.498;2023-02-28T02:38:11;-3.50;46.50
8402;DHT22;4238;48.404;9.498;2023-02-28T02:40:45;-3.40;48.30
8402;DHT22;4238;48.404;9.498;2023-02-28T02:43:19;-3.40;40.60
8402;DHT22;4238;48.404;9.498;2023-02-28T02:45:53;-3.40;39.00
8402;DHT22;4238;48.404;9.498;2023-02-28T02:48:25;-3.40;35.00
8402;DHT22;4238;48.404;9.498;2023-02-28T02:50:55;-3.40;28.20
8402;DHT22;4238;48.404;9.498;2023-02-28T02:53:27;-3.40;29.80
8402;DHT22;4238;48.404;9.498;2023-02-28T02:55:57;-3.50;41.00
8402;DHT22;4238;48.404;9.498;2023-02-28T02:58:27;-3.40;43.90
8402;DHT22;4238;48.404;9.498;2023-02-28T03:00:58;-3.50;36.80
8402;DHT22;4238;48.404;9.498;2023-02-28T03:03:28;-3.40;38.80
8402;DHT22;4238;48.404;9.498;2023-02-28T03:05:59;-3.40;33.20
8402;DHT22;4238;48.404;9.498;2023-02-28T03:08:27;-3.50;40.40
8402;DHT22;4238;48.404;9.498;2023-02-28T03:10:56;-3.40;37.00
8402;DHT22;4238;48.404;9.498;2023-02-28T03:13:51;-3.30;34.80
8402;DHT22;4238;48.404;9.498;2023-02-28T03:16:31;-3.30;18.20
8402;DHT22;4238;48.404;9.498;2023-02-28T03:19:12;-3.40;28.70
8402;DHT22;4238;48.404;9.498;2023-02-28T03:21:54;-3.30;32.20
8402;DHT22;4238;48.404;9.498;2023-02-28T03:24:29;-3.40;37.10
8402;DHT22;4238;48.404;9.498;2023-02-28T03:27:05;-3.50;37.40
8402;DHT22;4238;48.404;9.498;2023-02-28T03:29:35;-3.50;39.70
8402;DHT22;4238;48.404;9.498;2023-02-28T03:32:11;-3.50;36.90
8402;DHT22;4238;48.404;9.498;2023-02-28T03:34:48;-3.40;39.20
8402;DHT22;4238;48.404;9.498;2023-02-28T03:37:20;-3.30;29.10
8402;DHT22;4238;48.404;9.498;2023-02-28T03:39:53;-3.40;25.20
8402;DHT22;4238;48.404;9.498;2023-02-28T03:42:24;-3.40;32.60
8402;DHT22;4238;48.404;9.498;2023-02-28T03:44:55;-3.50;29.20
8402;DHT22;4238;48.404;9.498;2023-02-28T03:47:28;-3.40;33.50
8402;DHT22;4238;48.404;9.498;2023-02-28T03:49:59;-3.50;36.60
8402;DHT22;4238;48.404;9.498;2023-02-28T03:52:33;-3.30;30.80
8402;DHT22;4238;48.404;9.498;2023-02-28T03:55:03;-3.30;26.50
8402;DHT22;4238;48.404;9.498;2023-02-28T03:57:36;-3.50;33.10
8402;DHT22;4238;48.404;9.498;2023-02-28T04:00:07;-3.60;42.00
8402;DHT22;4238;48.404;9.498;2023-02-28T04:02:35;-3.60;40.00
8402;DHT22;4238;48.404;9.498;2023-02-28T04:05:02;-3.50;40.30
8402;DHT22;4238;48.404;9.498;2023-02-28T04:07:30;-3.50;37.90
8402;DHT22;4238;48.404;9.498;2023-02-28T04:09:58;-3.40;31.00
8402;DHT22;4238;48.404;9.498;2023-02-28T04:12:25;-3.30;25.20
8402;DHT22;4238;48.404;9.498;2023-02-28T04:14:52;-3.30;23.60
8402;DHT22;4238;48.404;9.498;2023-02-28T04:17:19;-3.40;26.50
8402;DHT22;4238;48.404;9.498;2023-02-28T04:19:46;-3.50;31.00
8402;DHT22;4238;48.404;9.498;2023-02-28T04:22:13;-3.50;31.20
8402;DHT22;4238;48.404;9.498;2023-02-28T04:24:41;-3.50;30.90
8402;DHT22;4238;48.404;9.498;2023-02-28T04:27:09;-3.40;33.40
8402;DHT22;4238;48.404;9.498;2023-02-28T04:29:36;-3.40;32.60
8402;DHT22;4238;48.404;9.498;2023-02-28T04:32:03;-3.30;27.90
8402;DHT22;4238;48.404;9.498;2023-02-28T04:34:31;-3.30;31.40
8402;DHT22;4238;48.404;9.498;2023-02-28T04:36:58;-3.20;21.60
8402;DHT22;4238;48.404;9.498;2023-02-28T04:39:26;-3.30;14.50
8402;DHT22;4238;48.404;9.498;2023-02-28T04:41:54;-3.30;19.60
8402;DHT22;4238;48.404;9.498;2023-02-28T04:44:21;-3.30;18.60
8402;DHT22;4238;48.404;9.498;2023-02-28T04:46:49;-3.30;21.70
8402;DHT22;4238;48.404;9.498;2023-02-28T04:49:16;-3.30;20.50
8402;DHT22;4238;48.404;9.498;2023-02-28T04:51:43;-3.30;19.70
8402;DHT22;4238;48.404;9.498;2023-02-28T04:54:10;-3.20;19.20
8402;DHT22;4238;48.404;9.498;2023-02-28T04:56:36;-3.30;20.00
8402;DHT22;4238;48.404;9.498;2023-02-28T04:59:05;-3.30;19.30
8402;DHT22;4238;48.404;9.498;2023-02-28T05:01:33;-3.40;30.70
8402;DHT22;4238;48.404;9.498;2023-02-28T05:04:02;-3.30;25.30
8402;DHT22;4238;48.404;9.498;2023-02-28T05:06:31;-3.40;31.80
8402;DHT22;4238;48.404;9.498;2023-02-28T05:08:59;-3.30;20.80
8402;DHT22;4238;48.404;9.498;2023-02-28T05:11:28;-3.20;20.50
8402;DHT22;4238;48.404;9.498;2023-02-28T05:13:59;-3.20;23.10
8402;DHT22;4238;48.404;9.498;2023-02-28T05:16:27;-3.20;21.30
8402;DHT22;4238;48.404;9.498;2023-02-28T05:18:54;-3.30;24.70
8402;DHT22;4238;48.404;9.498;2023-02-28T05:21:27;-3.20;21.10
8402;DHT22;4238;48.404;9.498;2023-02-28T05:23:56;-3.20;21.50
8402;DHT22;4238;48.404;9.498;2023-02-28T05:26:24;-3.10;19.40
8402;DHT22;4238;48.404;9.498;2023-02-28T05:28:51;-3.10;20.90
8402;DHT22;4238;48.404;9.498;2023-02-28T05:31:18;-3.10;19.60
8402;DHT22;4238;48.404;9.498;2023-02-28T05:33:47;-3.20;21.80
8402;DHT22;4238;48.404;9.498;2023-02-28T05:36:14;-3.30;27.40
8402;DHT22;4238;48.404;9.498;2023-02-28T05:38:41;-3.30;30.10
8402;DHT22;4238;48.404;9.498;2023-02-28T05:41:08;-3.20;29.20
8402;DHT22;4238;48.404;9.498;2023-02-28T05:43:36;-3.20;30.00
8402;DHT22;4238;48.404;9.498;2023-02-28T05:46:05;-3.20;24.60
8402;DHT22;4238;48.404;9.498;2023-02-28T05:48:32;-3.10;20.50
8402;DHT22;4238;48.404;9.498;2023-02-28T05:51:01;-3.10;21.30
8402;DHT22;4238;48.404;9.498;2023-02-28T05:53:28;-3.10;26.40
8402;DHT22;4238;48.404;9.498;2023-02-28T05:55:55;-3.20;21.90
8402;DHT22;4238;48.404;9.498;2023-02-28T05:58:22;-3.20;20.20
8402;DHT22;4238;48.404;9.498;2023-02-28T06:00:50;-3.10;24.80
8402;DHT22;4238;48.404;9.498;2023-02-28T06:03:17;-3.20;29.20
8402;DHT22;4238;48.404;9.498;2023-02-28T06:05:44;-3.10;27.60
8402;DHT22;4238;48.404;9.498;2023-02-28T06:08:12;-3.10;23.90
8402;DHT22;4238;48.404;9.498;2023-02-28T06:10:39;-3.10;26.80
8402;DHT22;4238;48.404;9.498;2023-02-28T06:13:06;-3.20;31.10
8402;DHT22;4238;48.404;9.498;2023-02-28T06:15:33;-3.10;22.50
8402;DHT22;4238;48.404;9.498;2023-02-28T06:18:00;-3.20;25.70
8402;DHT22;4238;48.404;9.498;2023-02-28T06:20:27;-3.10;28.00
8402;DHT22;4238;48.404;9.498;2023-02-28T06:22:55;-3.10;17.50
8402;DHT22;4238;48.404;9.498;2023-02-28T06:25:25;-3.10;21.90
8402;DHT22;4238;48.404;9.498;2023-02-28T06:27:53;-3.20;21.20
8402;DHT22;4238;48.404;9.498;2023-02-28T06:30:20;-3.10;25.80
8402;DHT22;4238;48.404;9.498;2023-02-28T06:32:50;-3.10;21.30
8402;DHT22;4238;48.404;9.498;2023-02-28T06:35:17;-3.20;30.30
8402;DHT22;4238;48.404;9.498;2023-02-28T06:37:44;-3.10;19.30
8402;DHT22;4238;48.404;9.498;2023-02-28T06:40:13;-3.10;20.80
8402;DHT22;4238;48.404;9.498;2023-02-28T06:42:41;-3.10;20.00
8402;DHT22;4238;48.404;9.498;2023-02-28T06:45:09;-3.10;16.20
8402;DHT22;4238;48.404;9.498;2023-02-28T06:47:37;-3.10;14.30
8402;DHT22;4238;48.404;9.498;2023-02-28T06:50:05;-3.10;16.50
8402;DHT22;4238;48.404;9.498;2023-02-28T06:52:32;-3.10;18.20
8402;DHT22;4238;48.404;9.498;2023-02-28T06:55:02;-3.10;21.50
8402;DHT22;4238;48.404;9.498;2023-02-28T06:57:29;-3.20;27.50
8402;DHT22;4238;48.404;9.498;2023-02-28T06:59:59;-3.10;25.70
8402;DHT22;4238;48.404;9.498;2023-02-28T07:02:26;-3.00;25.70
8402;DHT22;4238;48.404;9.498;2023-02-28T07:04:53;-3.00;20.70
8402;DHT22;4238;48.404;9.498;2023-02-28T07:07:20;-3.10;21.90
8402;DHT22;4238;48.404;9.498;2023-02-28T07:09:47;-3.00;23.10
8402;DHT22;4238;48.404;9.498;2023-02-28T07:12:15;-3.00;17.60
8402;DHT22;4238;48.404;9.498;2023-02-28T07:14:42;-3.00;18.70
8402;DHT22;4238;48.404;9.498;2023-02-28T07:17:10;-3.10;23.50
8402;DHT22;4238;48.404;9.498;2023-02-28T07:19:37;-3.10;31.90
8402;DHT22;4238;48.404;9.498;2023-02-28T07:22:04;-3.10;32.80
8402;DHT22;4238;48.404;9.498;2023-02-28T07:24:34;-3.00;24.70
8402;DHT22;4238;48.404;9.498;2023-02-28T07:27:01;-3.00;28.20
8402;DHT22;4238;48.404;9.498;2023-02-28T07:29:28;-3.10;28.50
8402;DHT22;4238;48.404;9.498;2023-02-28T07:31:56;-3.10;31.60
8402;DHT22;4238;48.404;9.498;2023-02-28T07:34:24;-3.10;29.90
8402;DHT22;4238;48.404;9.498;2023-02-28T07:36:53;-3.00;28.70
8402;DHT22;4238;48.404;9.498;2023-02-28T07:39:20;-3.00;22.60
8402;DHT22;4238;48.404;9.498;2023-02-28T07:41:47;-3.00;25.20
8402;DHT22;4238;48.404;9.498;2023-02-28T07:44:14;-3.10;24.10
8402;DHT22;4238;48.404;9.498;2023-02-28T07:46:41;-3.10;28.30
8402;DHT22;4238;48.404;9.498;2023-02-28T07:49:08;-3.10;19.80
8402;DHT22;4238;48.404;9.498;2023-02-28T07:51:36;-3.10;18.30
8402;DHT22;4238;48.404;9.498;2023-02-28T07:54:04;-3.30;33.40
8402;DHT22;4238;48.404;9.498;2023-02-28T07:56:31;-3.10;28.60
8402;DHT22;4238;48.404;9.498;2023-02-28T07:58:58;-3.10;34.30
8402;DHT22;4238;48.404;9.498;2023-02-28T08:01:25;-3.00;25.00
8402;DHT22;4238;48.404;9.498;2023-02-28T08:03:52;-3.00;22.80
8402;DHT22;4238;48.404;9.498;2023-02-28T08:06:22;-3.10;25.40
8402;DHT22;4238;48.404;9.498;2023-02-28T08:08:50;-3.10;17.80
8402;DHT22;4238;48.404;9.498;2023-02-28T08:11:18;-3.10;14.10
8402;DHT22;4238;48.404;9.498;2023-02-28T08:13:45;-3.10;20.40
8402;DHT22;4238;48.404;9.498;2023-02-28T08:16:13;-3.10;25.40
8402;DHT22;4238;48.404;9.498;2023-02-28T08:18:43;-2.90;26.40
8402;DHT22;4238;48.404;9.498;2023-02-28T08:21:10;-2.90;23.50
8402;DHT22;4238;48.404;9.498;2023-02-28T08:23:37;-2.80;27.70
8402;DHT22;4238;48.404;9.498;2023-02-28T08:26:06;-2.70;15.30
8402;DHT22;4238;48.404;9.498;2023-02-28T08:28:33;-2.60;13.90
8402;DHT22;4238;48.404;9.498;2023-02-28T08:31:00;-2.70;9.70
8402;DHT22;4238;48.404;9.498;2023-02-28T08:33:27;-2.70;1.00
8402;DHT22;4238;48.404;9.498;2023-02-28T08:35:55;-2.90;7.90
8402;DHT22;4238;48.404;9.498;2023-02-28T08:38:22;-2.90;15.10
8402;DHT22;4238;48.404;9.498;2023-02-28T08:40:49;-2.90;25.20
8402;DHT22;4238;48.404;9.498;2023-02-28T08:43:17;-2.90;27.60
8402;DHT22;4238;48.404;9.498;2023-02-28T08:45:44;-2.90;31.10
8402;DHT22;4238;48.404;9.498;2023-02-28T08:48:11;-2.80;30.00
8402;DHT22;4238;48.404;9.498;2023-02-28T08:50:39;-2.80;19.40
8402;DHT22;4238;48.404;9.498;2023-02-28T08:53:05;-2.70;11.70
8402;DHT22;4238;48.404;9.498;2023-02-28T08:55:32;-2.70;19.90
8402;DHT22;4238;48.404;9.498;2023-02-28T08:57:59;-2.70;15.90
8402;DHT22;4238;48.404;9.498;2023-02-28T09:00:28;-2.60;15.90
8402;DHT22;4238;48.404;9.498;2023-02-28T09:02:55;-2.60;8.80
8402;DHT22;4238;48.404;9.498;2023-02-28T09:05:22;-2.60;3.30
8402;DHT22;4238;48.404;9.498;2023-02-28T09:07:49;-2.80;13.70
8402;DHT22;4238;48.404;9.498;2023-02-28T09:10:16;-2.70;22.30
8402;DHT22;4238;48.404;9.498;2023-02-28T09:12:43;-2.70;18.60
8402;DHT22;4238;48.404;9.498;2023-02-28T09:15:12;-2.60;1.00
8402;DHT22;4238;48.404;9.498;2023-02-28T09:17:40;-2.60;1.00
8402;DHT22;4238;48.404;9.498;2023-02-28T09:20:08;-2.50;8.00
8402;DHT22;4238;48.404;9.498;2023-02-28T09:22:36;-2.40;1.00
8402;DHT22;4238;48.404;9.498;2023-02-28T09:25:03;-2.30;1.00
8402;DHT22;4238;48.404;9.498;2023-02-28T09:27:30;-2.30;1.00
8402;DHT22;4238;48.404;9.498;2023-02-28T09:29:57;-2.30;1.00
8402;DHT22;4238;48.404;9.498;2023-02-28T09:32:24;-2.50;1.00
8402;DHT22;4238;48.404;9.498;2023-02-28T09:34:52;-2.40;13.60
8402;DHT22;4238;48.404;9.498;2023-02-28T09:37:19;-2.40;11.20
8402;DHT22;4238;48.404;9.498;2023-02-28T09:39:46;-2.30;1.00
8402;DHT22;4238;48.404;9.498;2023-02-28T09:42:21;-2.30;1.00
8402;DHT22;4238;48.404;9.498;2023-02-28T09:44:49;-2.20;1.00
8402;DHT22;4238;48.404;9.498;2023-02-28T09:47:23;-2.10;1.00
8402;DHT22;4238;48.404;9.498;2023-02-28T09:49:55;-2.20;1.00
8402;DHT22;4238;48.404;9.498;2023-02-28T09:52:27;-2.20;1.00
8402;DHT22;4238;48.404;9.498;2023-02-28T09:54:55;-2.20;1.00
8402;DHT22;4238;48.404;9.498;2023-02-28T09:57:29;-2.30;1.40
8402;DHT22;4238;48.404;9.498;2023-02-28T10:00:07;-2.30;1.00
8402;DHT22;4238;48.404;9.498;2023-02-28T10:02:52;-2.20;1.00
8402;DHT22;4238;48.404;9.498;2023-02-28T10:05:26;-2.10;1.00
8402;DHT22;4238;48.404;9.498;2023-02-28T10:08:02;-2.10;1.00
8402;DHT22;4238;48.404;9.498;2023-02-28T10:10:35;-2.00;1.00
8402;DHT22;4238;48.404;9.498;2023-02-28T10:13:06;-2.10;1.00
8402;DHT22;4238;48.404;9.498;2023-02-28T10:15:37;-2.00;1.00
8402;DHT22;4238;48.404;9.498;2023-02-28T10:18:16;-1.90;1.00
8402;DHT22;4238;48.404;9.498;2023-02-28T10:20:49;-1.80;1.00
8402;DHT22;4238;48.404;9.498;2023-02-28T10:23:20;-1.80;1.00
8402;DHT22;4238;48.404;9.498;2023-02-28T10:25:53;-1.90;1.00
8402;DHT22;4238;48.404;9.498;2023-02-28T10:28:20;-1.90;1.00
8402;DHT22;4238;48.404;9.498;2023-02-28T10:30:49;-1.70;1.00
8402;DHT22;4238;48.404;9.498;2023-02-28T10:33:22;-1.70;1.00
8402;DHT22;4238;48.404;9.498;2023-02-28T10:35:51;-1.60;1.00
8402;DHT22;4238;48.404;9.498;2023-02-28T10:38:21;-1.60;1.00
8402;DHT22;4238;48.404;9.498;2023-02-28T10:40:48;-1.50;1.00
8402;DHT22;4238;48.404;9.498;2023-02-28T10:43:21;-1.50;1.00
8402;DHT22;4238;48.404;9.498;2023-02-28T10:45:57;-1.40;1.00
8402;DHT22;4238;48.404;9.498;2023-02-28T10:48:32;-1.20;1.00
8402;DHT22;4238;48.404;9.498;2023-02-28T10:51:02;-1.10;1.00
8402;DHT22;4238;48.404;9.498;2023-02-28T10:53:47;-1.00;1.00
8402;DHT22;4238;48.404;9.498;2023-02-28T10:56:17;-0.90;1.00
8402;DHT22;4238;48.404;9.498;2023-02-28T10:58:50;-1.10;1.00
8402;DHT22;4238;48.404;9.498;2023-02-28T11:01:19;-1.20;1.00
8402;DHT22;4238;48.404;9.498;2023-02-28T11:03:47;-1.20;1.00
8402;DHT22;4238;48.404;9.498;2023-02-28T11:06:19;-1.00;1.00
8402;DHT22;4238;48.404;9.498;2023-02-28T11:08:49;-1.00;1.00
8402;DHT22;4238;48.404;9.498;2023-02-28T11:11:17;-0.90;1.00
8402;DHT22;4238;48.404;9.498;2023-02-28T11:13:46;-1.00;1.00
8402;DHT22;4238;48.404;9.498;2023-02-28T11:16:15;-1.10;1.00
8402;DHT22;4238;48.404;9.498;2023-02-28T11:18:47;-0.80;1.00
8402;DHT22;4238;48.404;9.498;2023-02-28T11:21:26;-0.50;1.00
8402;DHT22;4238;48.404;9.498;2023-02-28T11:23:58;-0.10;1.00
8402;DHT22;4238;48.404;9.498;2023-02-28T11:26:41;0.10;1.00
8402;DHT22;4238;48.404;9.498;2023-02-28T11:29:18;0.30;99.90
8402;DHT22;4238;48.404;9.498;2023-02-28T11:32:05;0.30;99.90
8402;DHT22;4238;48.404;9.498;2023-02-28T11:34:35;0.10;1.00
8402;DHT22;4238;48.404;9.498;2023-02-28T11:37:09;0.20;99.90
8402;DHT22;4238;48.404;9.498;2023-02-28T11:39:37;0.50;1.00
8402;DHT22;4238;48.404;9.498;2023-02-28T11:42:37;0.60;1.00
8402;DHT22;4238;48.404;9.498;2023-02-28T11:45:20;1.20;2.60
8402;DHT22;4238;48.404;9.498;2023-02-28T11:47:54;1.90;99.90
8402;DHT22;4238;48.404;9.498;2023-02-28T11:50:42;2.60;1.00
8402;DHT22;4238;48.404;9.498;2023-02-28T11:53:21;2.40;99.90
8402;DHT22;4238;48.404;9.498;2023-02-28T11:55:53;2.50;99.90
8402;DHT22;4238;48.404;9.498;2023-02-28T11:58:34;2.70;1.00
8402;DHT22;4238;48.404;9.498;2023-02-28T12:01:12;2.70;1.00
8402;DHT22;4238;48.404;9.498;2023-02-28T12:03:49;1.80;99.90
8402;DHT22;4238;48.404;9.498;2023-02-28T12:06:25;1.60;1.00
8402;DHT22;4238;48.404;9.498;2023-02-28T12:09:20;2.00;99.90
8402;DHT22;4238;48.404;9.498;2023-02-28T12:11:53;2.40;99.90
8402;DHT22;4238;48.404;9.498;2023-02-28T12:17:25;2.80;1.00
8402;DHT22;4238;48.404;9.498;2023-02-28T12:20:00;2.90;1.00
8402;DHT22;4238;48.404;9.498;2023-02-28T12:22:30;3.30;1.00
8402;DHT22;4238;48.404;9.498;2023-02-28T12:25:23;3.60;1.00
8402;DHT22;4238;48.404;9.498;2023-02-28T12:27:57;3.60;99.90
8402;DHT22;4238;48.404;9.498;2023-02-28T12:30:26;4.00;1.00
8402;DHT22;4238;48.404;9.498;2023-02-28T12:32:56;4.30;99.90
8402;DHT22;4238;48.404;9.498;2023-02-28T12:35:28;4.60;99.90
8402;DHT22;4238;48.404;9.498;2023-02-28T12:38:04;4.60;26.10
8402;DHT22;4238;48.404;9.498;2023-02-28T12:40:42;4.30;99.90
8402;DHT22;4238;48.404;9.498;2023-02-28T12:43:13;3.80;99.90
8402;DHT22;4238;48.404;9.498;2023-02-28T12:45:43;3.50;99.90
8402;DHT22;4238;48.404;9.498;2023-02-28T12:48:17;3.20;1.00
8402;DHT22;4238;48.404;9.498;2023-02-28T12:50:48;3.30;1.00
8402;DHT22;4238;48.404;9.498;2023-02-28T12:53:18;3.20;1.00
8402;DHT22;4238;48.404;9.498;2023-02-28T12:55:56;2.90;1.00
8402;DHT22;4238;48.404;9.498;2023-02-28T12:58:31;2.50;99.90
8402;DHT22;4238;48.404;9.498;2023-02-28T13:01:13;2.40;1.00
8402;DHT22;4238;48.404;9.498;2023-02-28T13:03:54;2.20;1.00
8402;DHT22;4238;48.404;9.498;2023-02-28T13:09:16;1.70;99.90
8402;DHT22;4238;48.404;9.498;2023-02-28T13:11:47;2.20;99.90
8402;DHT22;4238;48.404;9.498;2023-02-28T13:14:24;2.30;99.90
8402;DHT22;4238;48.404;9.498;2023-02-28T13:16:59;2.60;99.90
8402;DHT22;4238;48.404;9.498;2023-02-28T13:19:30;2.70;1.00
8402;DHT22;4238;48.404;9.498;2023-02-28T13:21:58;2.40;1.00
8402;DHT22;4238;48.404;9.498;2023-02-28T13:24:44;2.20;1.00
8402;DHT22;4238;48.404;9.498;2023-02-28T13:27:37;2.20;99.90
8402;DHT22;4238;48.404;9.498;2023-02-28T13:33:25;1.70;99.90
8402;DHT22;4238;48.404;9.498;2023-02-28T13:36:08;1.70;1.00
8402;DHT22;4238;48.404;9.498;2023-02-28T13:38:40;1.80;99.90
8402;DHT22;4238;48.404;9.498;2023-02-28T13:41:46;2.00;1.00
8402;DHT22;4238;48.404;9.498;2023-02-28T13:44:17;1.90;99.90
8402;DHT22;4238;48.404;9.498;2023-02-28T13:49:50;2.70;1.00
8402;DHT22;4238;48.404;9.498;2023-02-28T13:52:21;3.00;1.00
8402;DHT22;4238;48.404;9.498;2023-02-28T13:55:06;3.20;2.30
8402;DHT22;4238;48.404;9.498;2023-02-28T13:57:48;2.90;99.90
8402;DHT22;4238;48.404;9.498;2023-02-28T14:00:31;2.60;1.00
8402;DHT22;4238;48.404;9.498;2023-02-28T14:03:14;2.90;1.00
8402;DHT22;4238;48.404;9.498;2023-02-28T14:05:44;2.70;99.90
8402;DHT22;4238;48.404;9.498;2023-02-28T14:08:15;3.00;99.90
8402;DHT22;4238;48.404;9.498;2023-02-28T14:10:45;3.50;99.90
8402;DHT22;4238;48.404;9.498;2023-02-28T14:15:58;3.80;1.00
8402;DHT22;4238;48.404;9.498;2023-02-28T14:18:29;4.00;99.90
8402;DHT22;4238;48.404;9.498;2023-02-28T14:21:03;3.60;1.00
8402;DHT22;4238;48.404;9.498;2023-02-28T14:23:46;3.70;1.00
8402;DHT22;4238;48.404;9.498;2023-02-28T14:26:29;3.60;1.00
8402;DHT22;4238;48.404;9.498;2023-02-28T14:29:16;3.50;1.00
8402;DHT22;4238;48.404;9.498;2023-02-28T14:31:51;3.00;1.00
8402;DHT22;4238;48.404;9.498;2023-02-28T14:34:33;3.20;14.60
8402;DHT22;4238;48.404;9.498;2023-02-28T14:37:02;3.40;99.90
8402;DHT22;4238;48.404;9.498;2023-02-28T14:39:30;3.30;1.00
8402;DHT22;4238;48.404;9.498;2023-02-28T14:41:58;3.20;1.00
8402;DHT22;4238;48.404;9.498;2023-02-28T14:44:29;3.10;1.00
8402;DHT22;4238;48.404;9.498;2023-02-28T14:46:59;3.20;1.00
8402;DHT22;4238;48.404;9.498;2023-02-28T14:49:31;3.30;1.00
8402;DHT22;4238;48.404;9.498;2023-02-28T14:52:06;2.90;1.00
8402;DHT22;4238;48.404;9.498;2023-02-28T14:54:35;2.90;1.00
8402;DHT22;4238;48.404;9.498;2023-02-28T14:57:03;3.10;99.90
8402;DHT22;4238;48.404;9.498;2023-02-28T14:59:32;3.20;1.00
8402;DHT22;4238;48.404;9.498;2023-02-28T15:02:33;3.40;1.00
8402;DHT22;4238;48.404;9.498;2023-02-28T15:05:02;3.30;99.90
8402;DHT22;4238;48.404;9.498;2023-02-28T15:07:36;3.20;1.00
8402;DHT22;4238;48.404;9.498;2023-02-28T15:10:12;3.20;1.00
8402;DHT22;4238;48.404;9.498;2023-02-28T15:12:40;3.10;1.00
8402;DHT22;4238;48.404;9.498;2023-02-28T15:15:15;3.00;1.00
8402;DHT22;4238;48.404;9.498;2023-02-28T15:17:46;2.90;1.00
8402;DHT22;4238;48.404;9.498;2023-02-28T15:20:15;2.80;99.90
8402;DHT22;4238;48.404;9.498;2023-02-28T15:22:45;2.70;99.90
8402;DHT22;4238;48.404;9.498;2023-02-28T15:25:15;2.90;1.00
8402;DHT22;4238;48.404;9.498;2023-02-28T15:27:45;2.60;45.10
8402;DHT22;4238;48.404;9.498;2023-02-28T15:30:17;2.40;99.90
8402;DHT22;4238;48.404;9.498;2023-02-28T15:33:02;2.40;99.90
8402;DHT22;4238;48.404;9.498;2023-02-28T15:35:32;2.40;99.90
8402;DHT22;4238;48.404;9.498;2023-02-28T15:38:01;2.20;99.90
8402;DHT22;4238;48.404;9.498;2023-02-28T15:40:31;2.10;1.00
8402;DHT22;4238;48.404;9.498;2023-02-28T15:43:03;2.00;1.00
8402;DHT22;4238;48.404;9.498;2023-02-28T15:45:36;2.00;1.00
8402;DHT22;4238;48.404;9.498;2023-02-28T15:48:15;2.00;99.90
8402;DHT22;4238;48.404;9.498;2023-02-28T15:50:42;2.00;99.90
8402;DHT22;4238;48.404;9.498;2023-02-28T15:53:14;2.10;1.00
8402;DHT22;4238;48.404;9.498;2023-02-28T15:55:42;2.20;99.90
8402;DHT22;4238;48.404;9.498;2023-02-28T15:58:11;2.10;5.90
8402;DHT22;4238;48.404;9.498;2023-02-28T16:00:43;1.90;99.90
8402;DHT22;4238;48.404;9.498;2023-02-28T16:03:26;2.00;99.90
8402;DHT22;4238;48.404;9.498;2023-02-28T16:09:11;1.90;1.00
8402;DHT22;4238;48.404;9.498;2023-02-28T16:11:42;1.80;99.90
8402;DHT22;4238;48.404;9.498;2023-02-28T16:14:15;1.80;99.90
8402;DHT22;4238;48.404;9.498;2023-02-28T16:16:44;1.80;99.90
8402;DHT22;4238;48.404;9.498;2023-02-28T16:19:12;1.90;99.90
8402;DHT22;4238;48.404;9.498;2023-02-28T16:21:39;1.80;1.00
8402;DHT22;4238;48.404;9.498;2023-02-28T16:24:06;1.70;1.00
8402;DHT22;4238;48.404;9.498;2023-02-28T16:26:34;1.70;1.00
8402;DHT22;4238;48.404;9.498;2023-02-28T16:29:03;1.70;1.00
8402;DHT22;4238;48.404;9.498;2023-02-28T16:31:31;1.60;1.00
8402;DHT22;4238;48.404;9.498;2023-02-28T16:33:59;1.50;99.90
8402;DHT22;4238;48.404;9.498;2023-02-28T16:36:29;1.30;1.00
8402;DHT22;4238;48.404;9.498;2023-02-28T16:38:56;1.40;99.90
8402;DHT22;4238;48.404;9.498;2023-02-28T16:41:26;1.20;1.00
8402;DHT22;4238;48.404;9.498;2023-02-28T16:43:55;1.10;1.00
8402;DHT22;4238;48.404;9.498;2023-02-28T16:46:27;1.10;1.00
8402;DHT22;4238;48.404;9.498;2023-02-28T16:48:54;1.10;99.90
8402;DHT22;4238;48.404;9.498;2023-02-28T16:51:21;1.20;99.90
8402;DHT22;4238;48.404;9.498;2023-02-28T16:53:49;1.10;99.90
8402;DHT22;4238;48.404;9.498;2023-02-28T16:56:19;1.10;99.90
8402;DHT22;4238;48.404;9.498;2023-02-28T16:58:47;1.00;99.90
8402;DHT22;4238;48.404;9.498;2023-02-28T17:01:14;0.90;99.90